Time;durP1;ratioP1;P1;durP2;ratioP2;P2;SDS_P1;SDS_P2;PMS_P1;PMS_P2;Temp;Humidity;BMP_temperature;BMP_pressure;BME280_temperature;BME280_humidity;BME280_pressure;Samples;Min_cycle;Max_cycle;Signal;HPM_P1;HPM_P2
2024/01/15 00:00:01;;;;;;;24.43;15.27;;;;;;;-0.41;100.00;100208.81;5027285;28;20036;-62
2024/01/15 00:02:26;;;;;;;27.30;14.87;;;;;;;-0.41;100.00;100206.25;5026758;28;20021;-63
2024/01/15 00:04:51;;;;;;;31.33;17.30;;;;;;;-0.43;100.00;100183.25;5027662;28;20060;-63
2024/01/15 00:07:17;;;;;;;30.77;18.43;;;;;;;-0.39;100.00;100189.44;5026739;28;20029;-63
2024/01/15 00:09:42;;;;;;;32.00;18.70;;;;;;;-0.42;100.00;100184.16;5027619;28;20465;-62
2024/01/15 00:12:07;;;;;;;31.37;18.53;;;;;;;-0.44;100.00;100185.69;5026210;28;20026;-63
2024/01/15 00:14:33;;;;;;;33.53;18.63;;;;;;;-0.44;100.00;100185.69;5026941;28;20339;-62
2024/01/15 00:16:58;;;;;;;35.80;18.90;;;;;;;-0.42;100.00;100179.06;5027165;28;20029;-63
2024/01/15 00:19:24;;;;;;;31.83;19.30;;;;;;;-0.46;100.00;100174.53;5027381;28;20064;-63
2024/01/15 00:21:49;;;;;;;34.13;18.60;;;;;;;-0.47;100.00;100170.22;5026698;28;20041;-63
2024/01/15 00:24:14;;;;;;;34.20;18.20;;;;;;;-0.51;100.00;100164.94;5026567;28;20051;-63
2024/01/15 00:26:40;;;;;;;33.80;19.87;;;;;;;-0.50;100.00;100163.25;5026433;28;20037;-63
2024/01/15 00:29:07;;;;;;;34.97;17.87;;;;;;;-0.55;100.00;100162.97;5026743;28;20048;-62
2024/01/15 00:31:32;;;;;;;30.60;18.97;;;;;;;-0.56;100.00;100163.75;5026585;28;20021;-63
2024/01/15 00:33:57;;;;;;;33.43;18.67;;;;;;;-0.55;100.00;100168.06;5026656;28;20470;-63
2024/01/15 00:36:23;;;;;;;36.53;18.10;;;;;;;-0.56;100.00;100166.31;5026168;28;20140;-63
2024/01/15 00:38:48;;;;;;;31.77;18.40;;;;;;;-0.59;100.00;100161.00;5026527;28;20021;-63
2024/01/15 00:41:14;;;;;;;29.17;17.80;;;;;;;-0.62;100.00;100155.69;5026847;28;20024;-63
2024/01/15 00:43:40;;;;;;;29.30;17.47;;;;;;;-0.62;100.00;100145.53;5026055;28;20033;-63
2024/01/15 00:46:05;;;;;;;26.97;15.83;;;;;;;-0.64;100.00;100150.50;5026079;28;20056;-63
2024/01/15 00:48:30;;;;;;;28.00;16.67;;;;;;;-0.65;100.00;100140.25;5022243;28;20030;-63
2024/01/15 00:50:56;;;;;;;30.57;15.87;;;;;;;-0.63;100.00;100149.72;5022375;28;20098;-63
2024/01/15 00:53:24;;;;;;;25.23;14.63;;;;;;;-0.64;100.00;100139.44;5025085;28;20022;-63
2024/01/15 00:55:49;;;;;;;24.43;15.20;;;;;;;-0.64;100.00;100142.00;5025856;28;20024;-63
2024/01/15 00:58:14;;;;;;;23.90;14.20;;;;;;;-0.65;100.00;100136.00;5026068;28;20029;-63
2024/01/15 01:00:40;;;;;;;22.83;12.47;;;;;;;-0.66;100.00;100143.53;5026344;28;20105;-63
2024/01/15 01:03:06;;;;;;;23.30;12.87;;;;;;;-0.67;100.00;100131.63;5026505;28;20115;-62
2024/01/15 01:05:31;;;;;;;19.43;10.53;;;;;;;-0.68;100.00;100130.72;5026353;28;20029;-63
2024/01/15 01:07:56;;;;;;;15.13;8.80;;;;;;;-0.66;100.00;100123.19;5026575;28;20033;-63
2024/01/15 01:10:21;;;;;;;19.70;8.60;;;;;;;-0.67;100.00;100127.41;5026111;28;20502;-63
2024/01/15 01:12:47;;;;;;;14.90;6.67;;;;;;;-0.67;100.00;100126.53;5026107;28;20018;-63
2024/01/15 01:15:12;;;;;;;10.77;5.63;;;;;;;-0.67;100.00;100131.63;5025747;28;20025;-63
2024/01/15 01:17:38;;;;;;;11.70;4.93;;;;;;;-0.68;100.00;100129.81;5026655;28;20026;-63
2024/01/15 01:20:06;;;;;;;11.63;4.80;;;;;;;-0.68;100.00;100124.75;5026297;28;20029;-63
2024/01/15 01:22:31;;;;;;;6.50;3.27;;;;;;;-0.65;100.00;100122.41;5026848;28;20068;-63
2024/01/15 01:24:56;;;;;;;9.73;2.80;;;;;;;-0.64;100.00;100121.63;5025975;28;20053;-62
2024/01/15 01:27:21;;;;;;;5.27;2.60;;;;;;;-0.65;100.00;100125.81;5026328;28;20444;-62
2024/01/15 01:29:47;;;;;;;4.63;2.13;;;;;;;-0.64;100.00;100116.53;5025530;28;20052;-63
2024/01/15 01:32:12;;;;;;;3.27;1.90;;;;;;;-0.63;100.00;100118.31;5025341;28;20465;-63
2024/01/15 01:34:42;;;;;;;6.47;2.33;;;;;;;-0.64;100.00;100126.72;5025668;28;20017;-63
2024/01/15 01:37:07;;;;;;;5.10;1.73;;;;;;;-0.64;100.00;100131.81;5025496;28;20055;-63
2024/01/15 01:39:33;;;;;;;2.47;1.70;;;;;;;-0.68;100.00;100130.72;5025645;28;20044;-63
2024/01/15 01:41:58;;;;;;;2.77;1.50;;;;;;;-0.68;100.00;100124.75;5026154;28;20505;-63
2024/01/15 01:44:23;;;;;;;4.47;1.57;;;;;;;-0.67;100.00;100127.41;5026031;28;20025;-63
2024/01/15 01:46:49;;;;;;;5.37;1.80;;;;;;;-0.70;100.00;100126.31;5025751;28;20022;-63
2024/01/15 01:49:15;;;;;;;6.90;2.00;;;;;;;-0.69;100.00;100128.06;5025674;28;20535;-62
2024/01/15 01:51:40;;;;;;;3.57;1.50;;;;;;;-0.72;100.00;100126.22;5026055;28;20049;-63
2024/01/15 01:54:07;;;;;;;4.23;1.87;;;;;;;-0.73;100.00;100127.00;5025385;28;20029;-63
2024/01/15 01:56:33;;;;;;;7.80;2.07;;;;;;;-0.73;100.00;100130.44;5026639;28;20531;-63
2024/01/15 01:58:59;;;;;;;5.57;1.10;;;;;;;-0.74;100.00;100127.78;5029481;28;20030;-63
2024/01/15 02:01:24;;;;;;;1.37;1.20;;;;;;;-0.75;100.00;100124.34;5029915;28;20457;-63
2024/01/15 02:03:50;;;;;;;4.77;1.50;;;;;;;-0.75;100.00;100121.81;5029352;28;20021;-63
2024/01/15 02:06:15;;;;;;;3.23;1.77;;;;;;;-0.73;100.00;100127.88;5029343;28;20029;-63
2024/01/15 02:08:43;;;;;;;4.73;1.60;;;;;;;-0.74;100.00;100126.09;5028715;28;20489;-63
2024/01/15 02:11:08;;;;;;;5.70;1.50;;;;;;;-0.74;100.00;100128.66;5029394;28;20064;-63
2024/01/15 02:13:34;;;;;;;6.50;1.70;;;;;;;-0.76;100.00;100127.69;5028982;28;20064;-62
2024/01/15 02:15:59;;;;;;;6.67;2.73;;;;;;;-0.76;100.00;100132.78;5029114;28;20476;-62
2024/01/15 02:18:24;;;;;;;4.67;1.90;;;;;;;-0.76;100.00;100121.72;5029237;28;20063;-62
2024/01/15 02:20:49;;;;;;;4.60;1.80;;;;;;;-0.75;100.00;100126.91;5029480;28;20060;-63
2024/01/15 02:23:15;;;;;;;4.53;1.60;;;;;;;-0.76;100.00;100111.53;5028575;28;20385;-62
2024/01/15 02:25:44;;;;;;;6.53;1.67;;;;;;;-0.75;100.00;100119.25;5029669;28;20039;-63
2024/01/15 02:28:13;;;;;;;5.03;2.07;;;;;;;-0.76;100.00;100112.41;5029145;28;20045;-63
2024/01/15 02:30:40;;;;;;;5.63;1.50;;;;;;;-0.80;100.00;100110.44;5029524;28;20589;-63
2024/01/15 02:33:09;;;;;;;4.57;1.43;;;;;;;-0.80;100.00;100110.44;5028575;28;20108;-63
2024/01/15 02:35:36;;;;;;;5.77;1.50;;;;;;;-0.78;100.00;100119.06;5029458;28;20449;-63
2024/01/15 02:38:02;;;;;;;4.53;1.20;;;;;;;-0.79;100.00;100117.28;5028594;28;20104;-63
2024/01/15 02:40:27;;;;;;;7.83;1.63;;;;;;;-0.79;100.00;100116.41;5027971;28;20049;-63
2024/01/15 02:42:53;;;;;;;3.73;1.40;;;;;;;-0.81;100.00;100108.66;5028459;28;20076;-62
2024/01/15 02:45:19;;;;;;;4.83;1.53;;;;;;;-0.83;100.00;100115.34;5029013;28;20032;-62
2024/01/15 02:47:45;;;;;;;4.87;1.27;;;;;;;-0.82;100.00;100116.19;5028801;28;20026;-63
2024/01/15 02:50:10;;;;;;;7.40;0.93;;;;;;;-0.84;100.00;100108.47;5022141;28;20457;-63
2024/01/15 02:52:35;;;;;;;5.87;1.53;;;;;;;-0.83;100.00;100110.25;5026048;28;20406;-62
2024/01/15 02:55:01;;;;;;;6.83;1.13;;;;;;;-0.87;100.00;100109.16;5028607;28;20029;-63
2024/01/15 02:57:26;;;;;;;4.27;1.40;;;;;;;-0.87;100.00;100109.16;5028304;28;20018;-63
2024/01/15 02:59:51;;;;;;;8.50;1.63;;;;;;;-0.90;100.00;100114.03;5028466;28;20185;-63
2024/01/15 03:02:16;;;;;;;4.10;0.80;;;;;;;-0.92;100.00;100107.09;5027548;28;20505;-63
2024/01/15 03:04:45;;;;;;;2.90;0.97;;;;;;;-0.93;100.00;100107.84;5028212;28;20036;-63
2024/01/15 03:07:10;;;;;;;5.43;1.10;;;;;;;-0.94;100.00;100112.06;5028002;28;20113;-63
2024/01/15 03:09:35;;;;;;;3.13;1.17;;;;;;;-0.93;100.00;100120.56;5027613;28;20267;-62
2024/01/15 03:12:00;;;;;;;3.67;0.90;;;;;;;-0.93;100.00;100123.09;5027639;28;20359;-62
2024/01/15 03:14:26;;;;;;;3.60;0.90;;;;;;;-0.94;100.00;100131.53;5028310;28;20024;-63
2024/01/15 03:16:52;;;;;;;4.03;0.80;;;;;;;-0.95;100.00;100123.00;5027906;28;20084;-63
2024/01/15 03:19:17;;;;;;;3.80;0.87;;;;;;;-0.95;100.00;100127.25;5027878;28;20374;-63
2024/01/15 03:21:43;;;;;;;5.63;0.90;;;;;;;-1.00;100.00;100122.72;5027550;28;20021;-62
2024/01/15 03:24:08;;;;;;;5.63;1.00;;;;;;;-0.98;100.00;100120.28;5028439;28;20033;-63
2024/01/15 03:26:33;;;;;;;7.17;1.30;;;;;;;-0.97;100.00;100111.84;5027687;28;20374;-63
2024/01/15 03:28:58;;;;;;;8.83;1.47;;;;;;;-0.97;100.00;100117.81;5027767;28;20540;-63
2024/01/15 03:31:24;;;;;;;4.60;0.97;;;;;;;-0.97;100.00;100116.94;5027656;28;20246;-63
2024/01/15 03:33:49;;;;;;;8.30;1.03;;;;;;;-0.97;100.00;100111.84;5027912;28;20079;-62
2024/01/15 03:36:14;;;;;;;5.50;1.27;;;;;;;-0.97;100.00;100122.03;5027547;28;20092;-63
2024/01/15 03:38:41;;;;;;;5.17;1.07;;;;;;;-0.95;100.00;100104.34;5028361;28;20083;-63
2024/01/15 03:41:08;;;;;;;7.10;1.40;;;;;;;-0.95;100.00;100104.34;5026767;28;20025;-63
2024/01/15 03:43:33;;;;;;;3.60;1.20;;;;;;;-0.94;100.00;100106.09;5027456;28;20028;-62
2024/01/15 03:45:58;;;;;;;5.60;1.10;;;;;;;-0.94;100.00;100101.91;5027358;28;20026;-63
2024/01/15 03:48:24;;;;;;;8.13;1.90;;;;;;;-0.92;100.00;100099.44;5027244;28;20489;-63
2024/01/15 03:50:49;;;;;;;6.70;0.90;;;;;;;-0.93;100.00;100100.22;5027479;28;20099;-62
2024/01/15 03:53:14;;;;;;;11.73;1.50;;;;;;;-0.93;100.00;100102.75;5026997;28;20028;-63
2024/01/15 03:55:40;;;;;;;6.83;1.30;;;;;;;-0.94;100.00;100090.84;5026948;28;20149;-62
2024/01/15 03:58:05;;;;;;;3.20;1.00;;;;;;;-0.93;100.00;100102.75;5027389;28;20539;-63
2024/01/15 04:00:30;;;;;;;9.43;1.60;;;;;;;-0.90;100.00;100095.34;5027082;28;20095;-63
2024/01/15 04:02:55;;;;;;;6.43;1.30;;;;;;;-0.90;100.00;100090.25;5027393;28;20021;-63
2024/01/15 04:05:21;;;;;;;3.70;1.27;;;;;;;-0.88;100.00;100091.25;5026915;28;20080;-63
2024/01/15 04:07:46;;;;;;;5.00;1.17;;;;;;;-0.88;100.00;100083.63;5027414;28;20474;-63
2024/01/15 04:10:11;;;;;;;10.37;1.87;;;;;;;-0.88;100.00;100071.75;5027125;28;20036;-63
2024/01/15 04:12:37;;;;;;;6.30;1.50;;;;;;;-0.87;100.00;100082.81;5027312;28;20029;-62
2024/01/15 04:15:03;;;;;;;9.97;1.93;;;;;;;-0.85;100.00;100068.53;5026475;28;20014;-63
2024/01/15 04:17:28;;;;;;;6.53;1.27;;;;;;;-0.83;100.00;100068.66;5027246;28;20421;-63
2024/01/15 04:19:54;;;;;;;5.93;1.00;;;;;;;-0.79;100.00;100071.47;5026456;28;20029;-62
2024/01/15 04:22:19;;;;;;;5.87;1.17;;;;;;;-0.79;100.00;100068.94;5027319;28;20087;-62
2024/01/15 04:24:44;;;;;;;8.70;1.43;;;;;;;-0.74;100.00;100065.03;5027140;28;20842;-63
2024/01/15 04:27:09;;;;;;;10.70;2.13;;;;;;;-0.69;100.00;100067.00;5026860;28;20120;-62
2024/01/15 04:29:37;;;;;;;7.90;1.60;;;;;;;-0.70;100.00;100065.25;5026784;28;20481;-62
2024/01/15 04:32:03;;;;;;;5.70;1.77;;;;;;;-0.70;100.00;100060.16;5026354;28;20075;-62
2024/01/15 04:34:28;;;;;;;7.47;1.33;;;;;;;-0.71;100.00;100068.56;5026734;28;20428;-62
2024/01/15 04:36:54;;;;;;;8.00;1.53;;;;;;;-0.72;100.00;100067.69;5026632;28;20477;-63
2024/01/15 04:39:19;;;;;;;4.57;1.10;;;;;;;-0.71;100.00;100059.25;5027015;28;20114;-62
2024/01/15 04:41:44;;;;;;;5.00;1.10;;;;;;;-0.71;100.00;100063.47;5026754;28;20504;-63
2024/01/15 04:44:09;;;;;;;3.23;0.90;;;;;;;-0.71;100.00;100058.38;5025685;28;20155;-62
2024/01/15 04:46:35;;;;;;;9.30;1.17;;;;;;;-0.71;100.00;100058.38;5026442;28;20040;-62
2024/01/15 04:49:00;;;;;;;5.73;1.10;;;;;;;-0.70;100.00;100049.97;5026724;28;20421;-63
2024/01/15 04:51:25;;;;;;;7.20;1.53;;;;;;;-0.70;100.00;100055.06;5026825;28;20125;-63
2024/01/15 04:53:50;;;;;;;3.77;0.90;;;;;;;-0.69;100.00;100052.63;5026191;28;20265;-63
2024/01/15 04:56:16;;;;;;;4.83;1.30;;;;;;;-0.68;100.00;100048.38;5026783;28;20018;-63
2024/01/15 04:58:41;;;;;;;3.73;1.67;;;;;;;-0.68;100.00;100054.38;5026282;28;20034;-63
2024/01/15 05:01:08;;;;;;;6.60;1.37;;;;;;;-0.68;100.00;100053.47;5026253;28;20106;-63
2024/01/15 05:03:33;;;;;;;2.03;0.80;;;;;;;-0.69;100.00;100059.34;5026082;28;20033;-62
2024/01/15 05:05:59;;;;;;;1.80;0.80;;;;;;;-0.71;100.00;100056.72;5026430;28;20044;-62
2024/01/15 05:08:24;;;;;;;5.30;1.00;;;;;;;-0.71;100.00;100053.28;5026401;28;20025;-63
2024/01/15 05:10:49;;;;;;;3.13;0.80;;;;;;;-0.73;100.00;100046.44;5026677;28;20407;-63
2024/01/15 05:13:14;;;;;;;1.83;0.90;;;;;;;-0.75;100.00;100048.00;5026447;28;20580;-63
2024/01/15 05:15:40;;;;;;;1.40;0.70;;;;;;;-0.75;100.00;100050.56;5025894;28;20033;-63
2024/01/15 05:18:06;;;;;;;3.20;1.00;;;;;;;-0.76;100.00;100041.16;5026511;28;20497;-63
2024/01/15 05:20:31;;;;;;;1.70;0.90;;;;;;;-0.77;100.00;100034.28;5026051;28;20030;-63
2024/01/15 05:22:56;;;;;;;2.70;0.80;;;;;;;-0.77;100.00;100034.28;5026123;28;20029;-62
2024/01/15 05:25:22;;;;;;;2.80;0.70;;;;;;;-0.77;100.00;100036.84;5026065;28;20025;-63
2024/01/15 05:27:48;;;;;;;1.70;0.63;;;;;;;-0.77;100.00;100035.94;5024540;28;20103;-62
2024/01/15 05:30:13;;;;;;;5.63;0.60;;;;;;;-0.76;100.00;100035.19;5026276;28;20420;-63
2024/01/15 05:32:38;;;;;;;1.53;0.60;;;;;;;-0.80;100.00;100038.31;5028852;28;20671;-62
2024/01/15 05:35:04;;;;;;;2.73;0.60;;;;;;;-0.81;100.00;100039.97;5029969;28;20025;-62
2024/01/15 05:37:29;;;;;;;2.30;1.03;;;;;;;-0.83;100.00;100039.00;5029821;28;20025;-62
2024/01/15 05:39:55;;;;;;;2.63;0.97;;;;;;;-0.83;100.00;100039.00;5030100;28;20036;-63
2024/01/15 05:42:20;;;;;;;1.87;0.80;;;;;;;-0.84;100.00;100034.69;5029805;28;20111;-62
2024/01/15 05:44:45;;;;;;;2.53;1.10;;;;;;;-0.85;100.00;100035.47;5030521;28;20041;-63
2024/01/15 05:47:10;;;;;;;3.07;1.50;;;;;;;-0.87;100.00;100034.47;5029398;28;20068;-62
2024/01/15 05:49:36;;;;;;;2.70;1.10;;;;;;;-0.88;100.00;100038.69;5030535;28;20025;-62
2024/01/15 05:52:01;;;;;;;2.10;1.33;;;;;;;-0.87;100.00;100047.19;5029839;28;20473;-62
2024/01/15 05:54:26;;;;;;;3.57;1.50;;;;;;;-0.86;100.00;100029.50;5029998;28;20029;-62
2024/01/15 05:56:51;;;;;;;2.73;1.60;;;;;;;-0.87;100.00;100030.28;5030205;28;20400;-63
2024/01/15 05:59:17;;;;;;;5.20;1.47;;;;;;;-0.90;100.00;100032.59;5029982;28;20079;-63
2024/01/15 06:01:42;;;;;;;6.53;1.20;;;;;;;-0.91;100.00;100025.78;5030438;28;20496;-62
2024/01/15 06:04:07;;;;;;;5.23;1.53;;;;;;;-0.90;100.00;100026.66;5029860;28;20067;-63
2024/01/15 06:06:33;;;;;;;5.87;1.50;;;;;;;-0.91;100.00;100024.88;5030087;28;20432;-62
2024/01/15 06:09:05;;;;;;;4.27;1.53;;;;;;;-0.90;100.00;100019.03;5029882;28;20035;-63
2024/01/15 06:11:31;;;;;;;4.57;1.40;;;;;;;-0.91;100.00;100022.34;5029689;28;20025;-62
2024/01/15 06:13:56;;;;;;;3.93;1.20;;;;;;;-0.89;100.00;100016.56;5030087;28;20061;-62
2024/01/15 06:16:23;;;;;;;5.00;1.27;;;;;;;-0.89;100.00;100018.22;5029916;28;20156;-62
2024/01/15 06:18:49;;;;;;;7.70;1.60;;;;;;;-0.91;100.00;100009.59;5029083;28;20033;-62
2024/01/15 06:21:14;;;;;;;4.77;1.40;;;;;;;-0.93;100.00;100001.88;5029726;28;20100;-62
2024/01/15 06:23:40;;;;;;;4.40;1.40;;;;;;;-0.91;100.00;100005.41;5016915;28;20021;-63
2024/01/15 06:26:05;;;;;;;7.17;1.97;;;;;;;-0.94;100.00;100004.34;5028936;28;20391;-63
2024/01/15 06:28:30;;;;;;;5.60;1.57;;;;;;;-0.94;100.00;100011.97;5027981;28;20119;-63
2024/01/15 06:30:57;;;;;;;6.43;1.63;;;;;;;-0.91;100.00;100009.59;5029422;28;20409;-63
2024/01/15 06:33:23;;;;;;;4.77;1.97;;;;;;;-0.90;100.00;100006.31;5026227;28;20041;-63
2024/01/15 06:35:49;;;;;;;4.67;1.97;;;;;;;-0.89;100.00;100000.41;5027358;28;20436;-63
2024/01/15 06:38:14;;;;;;;5.03;1.60;;;;;;;-0.89;100.00;100001.31;5027962;28;20156;-63
2024/01/15 06:40:45;;;;;;;6.00;1.53;;;;;;;-0.86;100.00;100003.16;5036268;28;20112;-63
2024/01/15 06:43:10;;;;;;;3.65;1.50;;;;;;;-0.84;100.00;100009.22;5035921;28;20025;-62
2024/01/15 06:45:35;;;;;;;3.80;1.73;;;;;;;-0.84;100.00;100011.78;5028838;28;20445;-62
2024/01/15 06:48:01;;;;;;;2.30;1.97;;;;;;;-0.84;100.00;100016.88;5031868;28;20020;-63
2024/01/15 06:50:26;;;;;;;2.83;1.20;;;;;;;-0.81;100.00;100009.41;5034536;28;20034;-63
2024/01/15 06:52:51;;;;;;;3.53;1.33;;;;;;;-0.83;100.00;100005.91;5034998;28;20119;-63
2024/01/15 06:55:16;;;;;;;3.73;1.47;;;;;;;-0.86;100.00;100008.25;5035011;28;20059;-62
2024/01/15 06:57:42;;;;;;;3.00;1.40;;;;;;;-0.86;100.00;100003.16;5026906;28;20028;-63
2024/01/15 07:00:08;;;;;;;2.00;1.40;;;;;;;-0.87;100.00;100007.38;5038852;28;20053;-63
2024/01/15 07:02:33;;;;;;;2.67;1.20;;;;;;;-0.87;100.00;100006.50;5045422;28;20064;-63
2024/01/15 07:04:59;;;;;;;2.23;1.87;;;;;;;-0.88;100.00;100005.59;5046703;28;20032;-63
2024/01/15 07:07:24;;;;;;;3.13;1.13;;;;;;;-0.88;100.00;100004.75;5027547;28;20469;-63
2024/01/15 07:09:52;;;;;;;3.03;1.13;;;;;;;-0.88;100.00;100005.59;5038839;28;20025;-62
2024/01/15 07:12:17;;;;;;;2.20;1.40;;;;;;;-0.90;100.00;100006.31;5044905;28;20025;-62
2024/01/15 07:14:42;;;;;;;2.60;1.40;;;;;;;-0.90;100.00;100011.41;5046264;28;20036;-63
2024/01/15 07:17:08;;;;;;;1.83;1.30;;;;;;;-0.93;100.00;100008.63;5045587;28;20029;-62
2024/01/15 07:19:33;;;;;;;2.00;1.80;;;;;;;-0.93;100.00;100016.25;5046080;28;20029;-63
2024/01/15 07:21:58;;;;;;;1.50;1.40;;;;;;;-0.95;100.00;100012.75;5026277;28;20064;-63
2024/01/15 07:24:24;;;;;;;2.90;1.90;;;;;;;-0.95;100.00;100007.66;5026049;28;20025;-63
2024/01/15 07:26:49;;;;;;;2.57;1.83;;;;;;;-0.97;100.00;100010.97;5024331;28;20021;-63
2024/01/15 07:29:14;;;;;;;2.20;1.60;;;;;;;-0.98;100.00;100011.78;5029728;28;20025;-63
2024/01/15 07:31:39;;;;;;;2.27;2.07;;;;;;;-1.00;100.00;100007.34;5033817;28;20051;-63
2024/01/15 07:34:05;;;;;;;2.93;2.40;;;;;;;-1.00;100.00;100009.91;5029955;28;20108;-63
2024/01/15 07:36:30;;;;;;;3.10;2.23;;;;;;;-1.00;100.00;100015.88;5025291;28;20021;-62
2024/01/15 07:38:55;;;;;;;2.40;2.20;;;;;;;-1.01;100.00;100003.91;5025972;28;20024;-63
2024/01/15 07:41:20;;;;;;;3.17;2.50;;;;;;;-1.02;100.00;100007.25;5026914;28;20108;-63
2024/01/15 07:43:46;;;;;;;2.40;2.20;;;;;;;-1.01;100.00;100014.09;5027375;28;20026;-63
2024/01/15 07:46:11;;;;;;;3.13;2.50;;;;;;;-1.00;100.00;100010.78;5026283;28;20029;-63
2024/01/15 07:48:36;;;;;;;4.47;3.20;;;;;;;-0.99;100.00;100011.69;5025916;28;20393;-63
2024/01/15 07:51:01;;;;;;;4.80;4.10;;;;;;;-1.00;100.00;100013.34;5024910;28;20038;-63
2024/01/15 07:53:27;;;;;;;7.03;5.00;;;;;;;-0.99;100.00;100012.53;5024888;28;20040;-62
2024/01/15 07:55:53;;;;;;;4.80;4.33;;;;;;;-0.95;100.00;100017.84;5024953;28;20032;-63
2024/01/15 07:58:18;;;;;;;5.80;5.07;;;;;;;-0.95;100.00;100017.84;5024706;28;20072;-62
2024/01/15 08:00:44;;;;;;;5.33;4.53;;;;;;;-0.94;100.00;100028.13;5025537;28;20104;-63
2024/01/15 08:03:09;;;;;;;6.40;5.33;;;;;;;-0.95;100.00;100033.09;5026512;28;20041;-63
2024/01/15 08:05:34;;;;;;;6.37;5.00;;;;;;;-0.94;100.00;100029.78;5026143;28;20125;-62
2024/01/15 08:08:00;;;;;;;4.83;4.30;;;;;;;-0.92;100.00;100030.75;5027302;28;20037;-63
2024/01/15 08:10:25;;;;;;;5.23;4.30;;;;;;;-0.90;100.00;100041.91;5027237;28;20434;-63
2024/01/15 08:12:50;;;;;;;4.90;4.40;;;;;;;-0.88;100.00;100040.38;5026221;28;20646;-62
2024/01/15 08:15:17;;;;;;;5.67;4.70;;;;;;;-0.88;100.00;100042.91;5024763;28;20176;-64
2024/01/15 08:17:42;;;;;;;6.23;4.97;;;;;;;-0.87;100.00;100053.19;5024717;28;20025;-64
2024/01/15 08:20:08;;;;;;;5.63;5.00;;;;;;;-0.88;100.00;100050.53;5025040;28;20382;-63
2024/01/15 08:22:33;;;;;;;8.50;5.80;;;;;;;-0.88;100.00;100055.63;5025930;28;20385;-64
2024/01/15 08:24:58;;;;;;;5.30;4.80;;;;;;;-0.88;100.00;100055.63;5024446;28;20060;-63
2024/01/15 08:27:24;;;;;;;7.30;5.90;;;;;;;-0.88;100.00;100055.63;5023238;28;20031;-64
2024/01/15 08:29:49;;;;;;;6.63;5.07;;;;;;;-0.89;100.00;100041.13;5024122;28;20069;-64
2024/01/15 08:32:15;;;;;;;6.60;5.43;;;;;;;-0.88;100.00;100040.38;5024603;28;20079;-64
2024/01/15 08:34:41;;;;;;;5.83;5.23;;;;;;;-0.89;100.00;100043.66;5024817;28;20025;-64
2024/01/15 08:37:06;;;;;;;6.80;5.83;;;;;;;-0.89;100.00;100049.66;5025341;28;20017;-63
2024/01/15 08:39:31;;;;;;;6.47;5.87;;;;;;;-0.89;100.00;100051.31;5025550;28;20017;-64
2024/01/15 08:41:56;;;;;;;6.33;5.43;;;;;;;-0.86;100.00;100056.59;5025877;28;20083;-64
2024/01/15 08:44:22;;;;;;;6.37;5.70;;;;;;;-0.84;100.00;100057.56;5026951;28;20581;-64
2024/01/15 08:46:47;;;;;;;9.97;5.27;;;;;;;-0.82;100.00;100055.13;5026691;28;20033;-64
2024/01/15 08:49:12;;;;;;;5.77;5.27;;;;;;;-0.82;100.00;100055.13;5026471;28;20029;-64
2024/01/15 08:51:39;;;;;;;6.07;5.10;;;;;;;-0.79;100.00;100056.22;5026281;28;20405;-63
2024/01/15 08:54:04;;;;;;;5.17;4.67;;;;;;;-0.79;100.00;100051.13;5026393;28;20024;-64
2024/01/15 08:56:29;;;;;;;6.97;5.60;;;;;;;-0.79;100.00;100052.81;5026777;28;20017;-64
2024/01/15 08:58:55;;;;;;;5.93;5.20;;;;;;;-0.79;100.00;100056.22;5025597;28;20025;-63
2024/01/15 09:01:20;;;;;;;5.17;4.70;;;;;;;-0.79;100.00;100055.34;5026663;28;20022;-63
2024/01/15 09:03:46;;;;;;;4.67;3.93;;;;;;;-0.78;100.00;100050.34;5024837;28;20113;-63
2024/01/15 09:06:11;;;;;;;4.13;3.50;;;;;;;-0.78;100.00;100045.28;5028158;28;20481;-64
2024/01/15 09:08:37;;;;;;;4.00;3.10;;;;;;;-0.76;100.00;100046.25;5030208;28;20110;-64
2024/01/15 09:11:03;;;;;;;4.20;2.40;;;;;;;-0.76;100.00;100053.00;5030781;28;20441;-64
2024/01/15 09:13:29;;;;;;;4.50;2.77;;;;;;;-0.77;100.00;100054.66;5030020;28;20511;-64
2024/01/15 09:15:54;;;;;;;5.07;1.80;;;;;;;-0.75;100.00;100042.91;5030598;28;20029;-63
2024/01/15 09:18:19;;;;;;;3.37;1.60;;;;;;;-0.74;100.00;100049.75;5030481;28;20424;-64
2024/01/15 09:20:44;;;;;;;2.63;1.50;;;;;;;-0.71;100.00;100046.53;5030297;28;20026;-64
2024/01/15 09:23:09;;;;;;;2.33;1.27;;;;;;;-0.70;100.00;100045.75;5030060;28;20022;-63
2024/01/15 09:25:35;;;;;;;4.07;0.90;;;;;;;-0.68;100.00;100051.81;5030437;28;20033;-64
2024/01/15 09:28:00;;;;;;;4.03;0.90;;;;;;;-0.67;100.00;100056.16;5030453;28;20018;-64
2024/01/15 09:30:25;;;;;;;3.43;1.00;;;;;;;-0.65;100.00;100048.59;5030649;28;20032;-63
2024/01/15 09:32:51;;;;;;;4.93;0.90;;;;;;;-0.61;100.00;100042.91;5029761;28;20382;-64
2024/01/15 09:35:16;;;;;;;1.83;0.63;;;;;;;-0.62;100.00;100048.78;5030339;28;20060;-64
2024/01/15 09:37:42;;;;;;;4.93;0.90;;;;;;;-0.59;100.00;100043.03;5030239;28;20018;-64
2024/01/15 09:40:13;;;;;;;4.40;0.60;;;;;;;-0.56;100.00;100036.47;5030161;28;20480;-64
2024/01/15 09:42:38;;;;;;;4.63;0.80;;;;;;;-0.56;100.00;100044.13;5029416;28;20108;-64
2024/01/15 09:45:04;;;;;;;3.00;0.70;;;;;;;-0.53;100.00;100054.50;5029998;28;20029;-64
2024/01/15 09:47:30;;;;;;;4.10;0.97;;;;;;;-0.52;100.00;100050.28;5029639;28;20523;-64
2024/01/15 09:49:57;;;;;;;2.87;0.80;;;;;;;-0.52;100.00;100056.25;5029177;28;20037;-64
2024/01/15 09:52:24;;;;;;;1.93;0.73;;;;;;;-0.52;100.00;100061.31;5029317;28;20029;-64
2024/01/15 09:54:50;;;;;;;3.20;0.70;;;;;;;-0.49;100.00;100071.69;5029503;28;20759;-64
2024/01/15 09:57:16;;;;;;;1.60;0.70;;;;;;;-0.47;100.00;100073.47;5026752;28;20025;-64
2024/01/15 09:59:43;;;;;;;3.03;0.63;;;;;;;-0.43;100.00;100072.91;5029500;28;20040;-64
2024/01/15 10:02:13;;;;;;;3.87;1.00;;;;;;;-0.43;100.00;100075.44;5029254;28;20453;-64
2024/01/15 10:04:38;;;;;;;2.07;0.90;;;;;;;-0.44;100.00;100083.84;5029610;28;20033;-64
2024/01/15 10:07:06;;;;;;;4.00;1.20;;;;;;;-0.46;100.00;100076.13;5028692;28;20030;-64
2024/01/15 10:09:31;;;;;;;3.63;1.17;;;;;;;-0.43;100.00;100070.38;5029867;28;20052;-64
2024/01/15 10:11:57;;;;;;;3.47;1.23;;;;;;;-0.40;100.00;100078.19;5028369;28;20485;-64
2024/01/15 10:14:23;;;;;;;5.70;1.40;;;;;;;-0.34;100.00;100068.38;5029171;28;20033;-64
2024/01/15 10:16:48;;;;;;;3.77;1.07;;;;;;;-0.24;100.00;100067.31;5029142;28;20021;-64
2024/01/15 10:19:13;;;;;;;3.90;1.50;;;;;;;-0.16;100.00;100067.78;5027926;28;20026;-64
2024/01/15 10:21:38;;;;;;;6.60;1.53;;;;;;;-0.07;100.00;100065.81;5028560;28;20477;-64
2024/01/15 10:24:04;;;;;;;4.27;1.33;;;;;;;0.01;100.00;100065.41;5029163;28;20033;-64
2024/01/15 10:26:30;;;;;;;4.80;1.20;;;;;;;0.06;100.00;100061.47;5028663;28;20461;-64
2024/01/15 10:28:56;;;;;;;5.30;1.60;;;;;;;0.13;100.00;100055.97;5018190;28;20091;-64
2024/01/15 10:31:21;;;;;;;1.50;1.10;;;;;;;0.21;100.00;100059.91;5028697;28;20408;-64
2024/01/15 10:33:48;;;;;;;5.03;1.27;;;;;;;0.30;100.00;100072.31;5026804;28;20481;-64
2024/01/15 10:36:15;;;;;;;5.20;1.57;;;;;;;0.43;100.00;100067.97;5028167;28;20017;-64
2024/01/15 10:38:45;;;;;;;4.13;1.30;;;;;;;0.56;100.00;100072.13;5028307;28;20112;-64
2024/01/15 10:41:10;;;;;;;4.40;1.50;;;;;;;0.63;100.00;100066.59;5028290;28;20104;-64
2024/01/15 10:43:37;;;;;;;5.30;1.50;;;;;;;0.75;100.00;100065.59;5028622;28;20151;-64
2024/01/15 10:46:03;;;;;;;6.87;1.63;;;;;;;0.86;100.00;100072.22;5028154;28;20026;-64
2024/01/15 10:48:30;;;;;;;4.57;1.87;;;;;;;0.94;100.00;100065.00;5028866;28;20421;-64
2024/01/15 10:50:57;;;;;;;4.77;1.60;;;;;;;0.95;100.00;100054.88;5027844;28;20056;-64
2024/01/15 10:53:23;;;;;;;3.70;1.83;;;;;;;1.00;100.00;100059.38;5028520;28;20036;-64
2024/01/15 10:55:50;;;;;;;5.13;1.43;;;;;;;0.98;100.00;100058.41;5028368;28;20068;-64
2024/01/15 10:58:16;;;;;;;3.20;1.10;;;;;;;0.99;100.00;100055.06;5028362;28;20245;-64
2024/01/15 11:00:41;;;;;;;4.40;1.50;;;;;;;0.95;100.00;100059.97;5028228;28;20021;-64
2024/01/15 11:03:07;;;;;;;6.93;1.27;;;;;;;0.96;100.00;100071.06;5027736;28;20040;-64
2024/01/15 11:05:43;;;;;;;2.83;1.10;;;;;;;0.91;100.00;100063.16;5028348;28;20018;-64
2024/01/15 11:08:09;;;;;;;4.50;1.13;;;;;;;0.93;100.00;100061.59;5027968;28;20477;-64